CheckWX is a tool to help pilots better visualize weather data.  It is not intended as a substitute for an official pre-flight weather briefing.

04:49:24 UTC

KSKF METAR
Kelly Field Airport
San Antonio, Texas, USA
Current

53 mins ago

KSKF 270356Z AUTO 23004KT 10SM CLR 25/22 A3011 RMK AO2 SLP189 T02530220 CHINO RWY34 $
Observed
Jun-27 @ 03:56 UTC
Wind
  • 230° at 4 KTS
Visibility
10 SM
Flight Rules
VFR
Cloud Levels
  • Clear skies
Temperature
25°C / 77°F
Dewpoint
22°C / 72°F
Humidity
83%
Altimeter
30.11" Hg
Pressure
1019.62 hPa
Previous

1 hour ago

KSKF 270331Z AUTO 17010KT 10SM CLR 27/22 A3010 RMK AO2 WSHFT 20 SLP185 CHINO RWY34 $
Observed
Jun-27 @ 03:31 UTC
Wind
  • 170° at 10 KTS
Visibility
10 SM
Flight Rules
VFR
Cloud Levels
  • Clear skies
Temperature
27°C / 81°F
Dewpoint
22°C / 72°F
Heat Index
29°C / 85°F
Humidity
74%
Altimeter
30.1" Hg
Pressure
1019.32 hPa
Previous

2 hours ago

KSKF 270256Z AUTO 13009KT 10SM CLR 28/23 A3009 RMK AO2 SLP182 T02760229 52020 CHINO RWY34 $
Observed
Jun-27 @ 02:56 UTC
Wind
  • 130° at 9 KTS
Visibility
10 SM
Flight Rules
VFR
Cloud Levels
  • Clear skies
Temperature
28°C / 82°F
Dewpoint
23°C / 73°F
Heat Index
31°C / 87°F
Humidity
74%
Altimeter
30.09" Hg
Pressure
1018.92 hPa